ORMM/BSR METAR and TAF weather

Enter ICAO airport designator
Station Type Date Time Source
ORMM METAR 2021/09/24 02:00 UTC NOAA

ORMM 240200Z 20004KT CAVOK 22/07 Q1004 NOSIG


Station Type Date Time Source
ORMM Decoded METAR 2021/09/24 02:00 UTC NOAA

Station name not available
Sep 23, 2021 - 10:00 PM EDT / 2021.09.24 0200 UTC
Wind: from the SSW (200 degrees) at 5 MPH (4 KT):0
Visibility: greater than 7 mile(s):0
Temperature: 71 F (22 C)
Dew Point: 44 F (7 C)
Relative Humidity: 37%
Pressure (altimeter): 29.65 in. Hg (1004 hPa)
ob: ORMM 240200Z 20004KT CAVOK 22/07 Q1004 NOSIG
cycle: 2

Station Type Date Time Source
ORMM TAF 2021/09/24 00:45 UTC NOAA

TAF ORMM 232200Z 2400/2424 VRB03KT CAVOK
BECMG 2403/2405 22006KT
BECMG 2413/2415 31010KT

Example: see airport list